Wainfleet, United Kingdom
Current Conditions -  °F | °C
As of 8:50 AM on Tuesday 21 Oct 2014 (Local Time) from EGXC Reporting Station
Light Rain Light Rain  
Wind Chill: 12°   Ceiling: 5000
Heat Index: 12°   Visibility: 6mi
Dew Point:   Wind: 23mph
Humidity: 82%   Direction: 280°W
Pressure: 29.41"   Gusts: NA
Location:  53.03°N, 0.27°E
Report Text: EGXC 210750Z 28020KT 9999 -RA FEW025 BKN050 BKN110 12/09 Q0996 BLU TEMPO SCT018 WHT
Loading
Personal Weather Stations






























Interactive Weather Map
Tropical Storm Tracking
New forecast layout! Learn more

10-Day Weather Forecast

Advertisements
Track Severe Weather on mobile